West Winfield, New York
Current Conditions -  °F | °C
As of 3:27 AM on Thursday 18 Dec 2014 (Local Time) from KRME Reporting Station
Light Snow Light Snow  
Wind Chill: -7°   Ceiling: 1000
Heat Index: -1°   Visibility: 4mi
Dew Point: -2°   Wind: 17mph
Humidity: 92%   Direction: 270°W
Pressure: 29.91"   Gusts: 25mph
Location:  42.89°N, 75.19°W
Report Text: KRME 180827Z AUTO 27015G22KT 4SM -SN BR BKN010 OVC013 M01/M02 A2991 RMK AO2 P0000 T10061017
Loading
Personal Weather Stations






























Interactive Weather Map New forecast layout! Learn more

10-Day Weather Forecast

Advertisements
Track Severe Weather on mobile